Time;durP1;ratioP1;P1;durP2;ratioP2;P2;SDS_P1;SDS_P2;PMS_P1;PMS_P2;Temp;Humidity;BMP_temperature;BMP_pressure;BME280_temperature;BME280_humidity;BME280_pressure;Samples;Min_cycle;Max_cycle;Signal;HPM_P1;HPM_P2
2021/04/10 00:02:16;;;;;;;5.78;3.97;;;10.70;43.60;;;;;;5050141;28;20033;-64
2021/04/10 00:04:44;;;;;;;6.43;3.65;;;10.70;43.80;;;;;;5048917;28;20039;-63
2021/04/10 00:07:12;;;;;;;4.22;3.53;;;10.60;43.90;;;;;;5047625;28;20057;-63
2021/04/10 00:09:42;;;;;;;5.22;3.90;;;10.60;44.00;;;;;;5047015;28;20420;-64
2021/04/10 00:12:10;;;;;;;4.90;3.60;;;10.60;44.30;;;;;;5040162;28;20028;-64
2021/04/10 00:14:36;;;;;;;6.63;3.22;;;10.50;44.30;;;;;;5048523;28;20316;-63
2021/04/10 00:17:01;;;;;;;5.20;3.50;;;10.50;44.50;;;;;;5049439;28;20103;-63
2021/04/10 00:19:31;;;;;;;5.95;3.42;;;10.40;44.50;;;;;;5038673;28;20032;-64
2021/04/10 00:22:04;;;;;;;4.50;3.22;;;10.40;44.80;;;;;;5042371;28;20036;-63
2021/04/10 00:24:32;;;;;;;4.70;3.53;;;10.40;44.70;;;;;;5040687;28;20393;-63
2021/04/10 00:26:58;;;;;;;11.77;3.75;;;10.30;44.60;;;;;;5041508;28;20029;-63
2021/04/10 00:29:23;;;;;;;4.93;3.28;;;10.30;44.50;;;;;;5048560;28;20072;-63
2021/04/10 00:31:49;;;;;;;4.40;3.30;;;10.30;44.60;;;;;;5048509;28;20021;-65
2021/04/10 00:34:14;;;;;;;4.22;3.00;;;10.30;44.60;;;;;;5048914;28;20022;-63
2021/04/10 00:36:40;;;;;;;8.20;3.45;;;10.40;44.70;;;;;;5044245;28;20036;-64
2021/04/10 00:39:08;;;;;;;4.93;3.22;;;10.40;44.60;;;;;;5047830;28;20079;-64
2021/04/10 00:41:34;;;;;;;4.85;3.17;;;10.40;44.70;;;;;;5042622;28;20049;-63
2021/04/10 00:44:03;;;;;;;5.70;3.50;;;10.40;44.60;;;;;;5040501;28;20033;-63
2021/04/10 00:46:28;;;;;;;9.27;3.85;;;10.50;44.70;;;;;;5039837;28;20026;-64
2021/04/10 00:48:54;;;;;;;5.75;2.88;;;10.50;44.70;;;;;;5044700;28;20060;-63
2021/04/10 00:51:24;;;;;;;5.85;2.78;;;10.50;44.70;;;;;;5041286;28;20420;-63
2021/04/10 00:53:54;;;;;;;2.83;2.22;;;10.50;44.70;;;;;;5045618;28;20055;-62
2021/04/10 00:56:20;;;;;;;3.70;2.40;;;10.60;44.70;;;;;;5044230;28;20045;-64
2021/04/10 00:58:48;;;;;;;4.78;2.80;;;10.60;44.70;;;;;;5038772;28;20058;-64
2021/04/10 01:01:18;;;;;;;5.53;2.90;;;10.60;44.70;;;;;;5044265;28;20079;-63
2021/04/10 01:03:44;;;;;;;3.53;2.53;;;10.70;44.70;;;;;;5043655;28;20041;-63
2021/04/10 01:06:12;;;;;;;4.88;2.97;;;10.60;44.70;;;;;;5045741;28;20067;-64
2021/04/10 01:08:38;;;;;;;5.18;2.78;;;10.70;44.70;;;;;;5041930;28;20071;-63
2021/04/10 01:11:14;;;;;;;5.38;2.67;;;10.70;44.70;;;;;;5037341;28;20056;-63
2021/04/10 01:13:58;;;;;;;5.95;2.85;;;10.70;44.90;;;;;;5046318;28;20699;-63
2021/04/10 01:16:32;;;;;;;3.80;2.40;;;10.70;44.90;;;;;;5046790;28;20048;-64
2021/04/10 01:19:34;;;;;;;4.70;2.70;;;10.70;44.90;;;;;;5044460;28;20029;-64
2021/04/10 01:22:19;;;;;;;4.22;2.45;;;10.70;45.40;;;;;;5044121;28;20044;-63
2021/04/10 01:24:45;;;;;;;;;;;10.70;45.00;;;;;;5042787;28;20025;-63
2021/04/10 01:27:27;;;;;;;3.47;2.67;;;10.80;44.90;;;;;;5042158;28;19974;-63
2021/04/10 01:30:06;;;;;;;5.93;2.30;;;10.70;44.90;;;;;;5043737;28;20045;-63
2021/04/10 01:32:36;;;;;;;4.40;2.47;;;10.70;44.80;;;;;;5044342;28;20408;-64
2021/04/10 01:35:15;;;;;;;6.20;2.97;;;10.60;45.00;;;;;;5047815;28;20036;-65
2021/04/10 01:37:58;;;;;;;3.97;2.60;;;10.60;45.60;;;;;;5047161;28;20033;-64
2021/04/10 01:40:28;;;;;;;6.20;2.67;;;10.50;45.50;;;;;;5047183;28;20051;-63
2021/04/10 01:42:55;;;;;;;4.45;2.55;;;10.50;45.20;;;;;;5038429;28;20033;-64
2021/04/10 01:45:22;;;;;;;4.80;2.47;;;10.50;45.30;;;;;;5044783;28;20033;-63
2021/04/10 01:47:54;;;;;;;3.63;2.33;;;10.40;45.40;;;;;;5041185;28;20029;-63
2021/04/10 01:50:21;;;;;;;5.00;2.58;;;10.40;45.70;;;;;;5045606;28;20112;-63
2021/04/10 01:52:49;;;;;;;3.97;2.40;;;10.30;45.50;;;;;;5041308;28;20041;-63
2021/04/10 01:55:17;;;;;;;2.70;2.33;;;10.30;45.70;;;;;;5039856;28;20549;-63
2021/04/10 01:57:50;;;;;;;4.88;2.60;;;10.30;45.70;;;;;;5045562;28;20041;-64
2021/04/10 02:00:20;;;;;;;4.13;2.40;;;10.30;45.80;;;;;;5045488;28;20065;-63
2021/04/10 02:02:48;;;;;;;3.10;2.38;;;10.30;45.70;;;;;;5044985;28;20041;-63
2021/04/10 02:05:17;;;;;;;4.05;2.47;;;10.30;45.90;;;;;;5037529;28;20037;-63
2021/04/10 02:07:49;;;;;;;3.50;2.30;;;10.30;46.00;;;;;;5041807;28;20120;-63
2021/04/10 02:10:18;;;;;;;4.72;2.60;;;10.30;46.10;;;;;;5040551;28;20489;-65
2021/04/10 02:12:47;;;;;;;6.10;2.60;;;10.30;46.10;;;;;;5055075;28;20062;-64
2021/04/10 02:15:15;;;;;;;3.08;2.33;;;10.30;46.10;;;;;;5043718;28;20032;-64
2021/04/10 02:17:41;;;;;;;4.03;2.35;;;10.30;46.20;;;;;;5044221;28;20421;-62
2021/04/10 02:20:12;;;;;;;5.72;2.60;;;10.30;46.10;;;;;;5043068;28;20032;-63
2021/04/10 02:22:50;;;;;;;4.78;2.55;;;10.30;46.20;;;;;;5043186;28;20109;-63
2021/04/10 02:25:19;;;;;;;4.90;2.67;;;10.30;46.30;;;;;;5045466;28;20059;-64
2021/04/10 02:27:47;;;;;;;4.03;2.10;;;10.30;46.80;;;;;;5033269;28;20501;-64
2021/04/10 02:30:14;;;;;;;3.30;2.17;;;10.30;46.10;;;;;;5045544;28;20064;-63
2021/04/10 02:33:06;;;;;;;5.03;2.42;;;10.30;46.20;;;;;;5043380;28;20040;-63
2021/04/10 02:35:35;;;;;;;3.92;2.17;;;10.30;46.50;;;;;;5045169;28;20029;-63
2021/04/10 02:38:01;;;;;;;6.32;2.47;;;10.30;46.40;;;;;;5039372;28;20036;-64
2021/04/10 02:40:32;;;;;;;5.15;2.30;;;10.20;46.20;;;;;;5044626;28;20090;-63
2021/04/10 02:43:04;;;;;;;4.35;2.42;;;10.20;46.50;;;;;;5045680;28;20033;-64
2021/04/10 02:45:30;;;;;;;4.43;2.22;;;10.20;46.30;;;;;;5042097;28;20116;-65
2021/04/10 02:48:01;;;;;;;4.03;2.28;;;10.10;46.30;;;;;;5041580;28;20704;-64
2021/04/10 02:50:29;;;;;;;3.45;2.58;;;10.10;46.40;;;;;;5045254;28;20036;-63
2021/04/10 02:52:57;;;;;;;2.83;2.17;;;10.00;46.50;;;;;;5044403;28;20033;-64
2021/04/10 02:55:36;;;;;;;4.43;2.40;;;10.00;46.50;;;;;;5041578;28;20037;-64
2021/04/10 02:58:04;;;;;;;4.10;2.38;;;10.00;46.90;;;;;;5043874;28;20052;-62
2021/04/10 03:00:31;;;;;;;5.00;2.25;;;10.00;46.70;;;;;;5041856;28;20404;-63
2021/04/10 03:02:58;;;;;;;3.42;2.03;;;9.90;46.70;;;;;;5044007;28;20521;-63
2021/04/10 03:05:26;;;;;;;3.20;2.08;;;9.90;46.70;;;;;;5043796;28;20071;-63
2021/04/10 03:07:56;;;;;;;4.70;2.05;;;9.90;46.80;;;;;;5041601;28;20030;-63
2021/04/10 03:10:25;;;;;;;3.50;2.10;;;9.90;46.70;;;;;;5036665;28;20041;-63
2021/04/10 03:12:55;;;;;;;3.78;2.17;;;9.90;46.80;;;;;;5044348;28;20037;-61
2021/04/10 03:15:26;;;;;;;4.50;2.17;;;9.90;46.70;;;;;;5044026;28;20083;-63
2021/04/10 03:17:52;;;;;;;2.45;2.10;;;9.90;46.80;;;;;;5041216;28;20122;-64
2021/04/10 03:20:21;;;;;;;4.05;2.20;;;10.00;46.70;;;;;;5041802;28;20033;-63
2021/04/10 03:22:50;;;;;;;3.25;2.00;;;10.00;46.80;;;;;;5036246;28;20461;-63
2021/04/10 03:25:19;;;;;;;3.20;2.20;;;10.00;46.90;;;;;;5041413;28;20052;-63
2021/04/10 03:27:47;;;;;;;4.95;3.15;;;10.00;46.80;;;;;;5039791;28;20037;-60
2021/04/10 03:30:16;;;;;;;5.05;2.20;;;10.00;46.90;;;;;;5035740;28;20051;-63
2021/04/10 03:32:43;;;;;;;4.32;2.28;;;10.00;46.80;;;;;;5044422;28;20501;-64
2021/04/10 03:35:11;;;;;;;4.70;2.00;;;10.00;46.80;;;;;;5045106;28;20083;-63
2021/04/10 03:37:36;;;;;;;3.60;2.08;;;10.00;46.90;;;;;;5042317;28;20043;-65
2021/04/10 03:40:06;;;;;;;5.05;2.17;;;10.00;46.90;;;;;;5042383;28;20045;-64
2021/04/10 03:42:40;;;;;;;2.63;1.70;;;10.00;47.00;;;;;;5039086;28;20549;-63
2021/04/10 03:45:12;;;;;;;3.72;2.08;;;10.10;47.20;;;;;;5045934;28;20682;-64
2021/04/10 03:47:37;;;;;;;4.45;1.92;;;10.00;47.10;;;;;;5043588;28;20429;-63
2021/04/10 03:50:07;;;;;;;3.90;1.75;;;10.10;47.20;;;;;;5043837;28;20033;-64
2021/04/10 03:52:35;;;;;;;4.45;1.70;;;10.10;47.20;;;;;;5047108;28;20036;-63
2021/04/10 03:55:03;;;;;;;5.55;2.00;;;10.10;47.30;;;;;;5043829;28;20040;-63
2021/04/10 03:57:31;;;;;;;3.90;2.00;;;10.10;47.20;;;;;;5049496;28;20025;-58
2021/04/10 04:00:00;;;;;;;3.75;1.95;;;10.20;47.20;;;;;;5045501;28;20037;-63
2021/04/10 04:02:26;;;;;;;3.72;1.80;;;10.10;47.20;;;;;;5045152;28;20033;-64
2021/04/10 04:04:52;;;;;;;3.83;1.80;;;10.10;47.20;;;;;;5046314;28;20123;-63
2021/04/10 04:07:18;;;;;;;4.38;1.60;;;10.10;47.20;;;;;;5046651;28;20147;-64
2021/04/10 04:09:44;;;;;;;4.25;1.77;;;10.10;47.30;;;;;;5046392;28;20386;-63
2021/04/10 04:12:10;;;;;;;3.33;1.75;;;10.10;47.40;;;;;;5041661;28;20029;-63
2021/04/10 04:14:38;;;;;;;4.85;1.85;;;10.10;47.50;;;;;;5048529;28;20021;-63
2021/04/10 04:17:06;;;;;;;4.65;1.70;;;10.10;47.70;;;;;;5044429;28;20060;-63
2021/04/10 04:19:38;;;;;;;3.03;1.75;;;10.00;47.80;;;;;;5046274;28;20033;-64
2021/04/10 04:22:04;;;;;;;2.97;1.80;;;10.00;48.00;;;;;;5044907;28;20526;-63
2021/04/10 04:24:30;;;;;;;6.45;2.97;;;10.00;48.00;;;;;;5043538;28;20141;-63
2021/04/10 04:26:57;;;;;;;4.13;3.30;;;10.00;48.20;;;;;;5044377;28;20707;-64
2021/04/10 04:29:25;;;;;;;3.40;2.67;;;10.00;48.40;;;;;;5044279;28;20032;-64
2021/04/10 04:31:51;;;;;;;6.57;3.65;;;10.00;48.50;;;;;;5044958;28;20037;-63
2021/04/10 04:34:16;;;;;;;6.63;3.50;;;10.00;48.70;;;;;;5048169;28;20090;-64
2021/04/10 04:36:47;;;;;;;9.20;2.05;;;10.00;48.90;;;;;;5044106;28;20416;-63
2021/04/10 04:39:15;;;;;;;2.90;1.70;;;10.00;49.00;;;;;;5044089;28;20036;-63
2021/04/10 04:41:43;;;;;;;2.05;1.40;;;10.10;49.30;;;;;;5044664;28;20037;-64
2021/04/10 04:44:11;;;;;;;3.85;1.25;;;10.10;49.40;;;;;;5047968;28;20069;-62
2021/04/10 04:46:39;;;;;;;12.02;6.32;;;10.10;49.50;;;;;;5044148;28;20032;-63
2021/04/10 04:49:07;;;;;;;7.22;2.00;;;10.10;49.60;;;;;;5043164;28;20036;-63
2021/04/10 04:51:35;;;;;;;3.78;1.75;;;10.20;49.80;;;;;;5043142;28;20064;-63
2021/04/10 04:54:03;;;;;;;2.78;1.45;;;10.20;49.80;;;;;;5035726;28;20037;-61
2021/04/10 04:56:28;;;;;;;4.57;2.40;;;10.20;49.80;;;;;;5033725;28;20037;-63
2021/04/10 04:58:56;;;;;;;9.48;3.38;;;10.20;49.80;;;;;;5036087;28;20052;-64
2021/04/10 05:01:24;;;;;;;3.28;2.50;;;10.30;50.00;;;;;;5036851;28;20047;-64
2021/04/10 05:03:50;;;;;;;3.97;2.92;;;10.30;50.00;;;;;;5038973;28;20037;-64
2021/04/10 05:06:18;;;;;;;7.45;4.18;;;10.30;50.10;;;;;;5037153;28;20893;-64
2021/04/10 05:08:46;;;;;;;3.67;3.33;;;10.30;50.20;;;;;;5034956;28;20328;-63
2021/04/10 05:11:14;;;;;;;3.78;1.98;;;10.40;50.30;;;;;;5034558;28;20405;-63
2021/04/10 05:13:40;;;;;;;4.80;1.65;;;10.40;50.70;;;;;;5035942;28;20479;-63
2021/04/10 05:16:06;;;;;;;4.43;1.40;;;10.40;50.50;;;;;;5032124;28;20037;-64
2021/04/10 05:18:34;;;;;;;3.72;1.60;;;10.50;50.60;;;;;;5033971;28;20040;-64
2021/04/10 05:21:03;;;;;;;3.20;1.60;;;10.50;50.50;;;;;;5036489;28;20044;-63
2021/04/10 05:23:28;;;;;;;2.33;1.50;;;10.50;50.70;;;;;;5035419;28;20144;-64
2021/04/10 05:26:01;;;;;;;2.45;1.38;;;10.50;50.60;;;;;;5036128;28;20573;-65
2021/04/10 05:28:29;;;;;;;4.72;2.00;;;10.50;51.50;;;;;;5035102;28;20038;-63
2021/04/10 05:30:55;;;;;;;3.10;1.60;;;10.50;50.80;;;;;;5035912;28;20029;-65
2021/04/10 05:33:20;;;;;;;2.17;1.40;;;10.50;51.00;;;;;;5035661;28;20091;-63
2021/04/10 05:35:46;;;;;;;4.22;1.27;;;10.50;51.00;;;;;;5036809;28;20037;-61
2021/04/10 05:38:12;;;;;;;2.83;1.25;;;10.50;51.00;;;;;;5035025;28;20052;-62
2021/04/10 05:40:40;;;;;;;5.07;1.88;;;10.60;51.00;;;;;;5034498;28;20037;-63
2021/04/10 05:43:06;;;;;;;3.42;1.52;;;10.60;51.20;;;;;;5035223;28;20025;-62
2021/04/10 05:45:34;;;;;;;2.38;1.52;;;10.60;51.10;;;;;;5035998;28;20780;-64
2021/04/10 05:48:02;;;;;;;2.78;1.65;;;10.60;51.20;;;;;;5036214;28;20053;-64
2021/04/10 05:50:32;;;;;;;6.80;1.80;;;10.60;51.00;;;;;;5037297;28;20037;-63
2021/04/10 05:53:00;;;;;;;4.68;1.88;;;10.60;51.30;;;;;;5035492;28;20037;-64
2021/04/10 05:55:25;;;;;;;2.55;1.67;;;10.60;51.00;;;;;;5035298;28;20040;-64
2021/04/10 05:57:54;;;;;;;3.13;2.00;;;10.60;51.00;;;;;;5033117;28;20056;-64
2021/04/10 06:00:20;;;;;;;2.58;1.80;;;10.60;51.00;;;;;;5042515;28;20124;-64
2021/04/10 06:02:57;;;;;;;5.40;1.88;;;10.60;51.00;;;;;;5020862;28;20033;-61
2021/04/10 06:05:25;;;;;;;4.30;2.00;;;10.60;51.40;;;;;;5041635;28;20029;-61
2021/04/10 06:07:54;;;;;;;5.47;2.05;;;10.60;51.30;;;;;;5029575;28;20026;-63
2021/04/10 06:10:24;;;;;;;3.78;1.60;;;10.70;51.30;;;;;;5040080;28;20037;-64
2021/04/10 06:12:49;;;;;;;4.45;1.60;;;10.70;51.60;;;;;;5039049;28;20041;-63
2021/04/10 06:15:23;;;;;;;3.10;1.70;;;10.70;51.50;;;;;;5041240;28;20038;-63
2021/04/10 06:17:52;;;;;;;3.85;1.95;;;10.70;52.00;;;;;;5038081;28;20045;-64
2021/04/10 06:20:20;;;;;;;3.20;1.60;;;10.80;51.90;;;;;;5035879;28;20437;-63
2021/04/10 06:22:46;;;;;;;2.58;1.60;;;10.80;52.00;;;;;;5038645;28;20025;-64
2021/04/10 06:25:16;;;;;;;6.35;1.80;;;10.90;52.20;;;;;;5042210;28;20432;-63
2021/04/10 06:27:44;;;;;;;2.42;1.70;;;11.00;53.30;;;;;;5039983;28;20033;-63
2021/04/10 06:30:10;;;;;;;4.65;1.90;;;11.10;52.70;;;;;;5036350;28;20029;-64
2021/04/10 06:32:39;;;;;;;5.85;1.75;;;11.20;52.60;;;;;;5040179;28;20170;-63
2021/04/10 06:35:05;;;;;;;4.03;1.60;;;11.30;52.50;;;;;;5035693;28;20564;-63
2021/04/10 06:37:30;;;;;;;5.03;1.50;;;11.40;52.90;;;;;;5041766;28;20041;-62
2021/04/10 06:39:58;;;;;;;3.60;1.50;;;11.50;52.80;;;;;;5041151;28;20039;-64
2021/04/10 06:42:28;;;;;;;3.15;1.40;;;11.60;52.70;;;;;;5042100;28;20044;-62
2021/04/10 06:44:56;;;;;;;3.67;1.45;;;11.70;52.70;;;;;;5040569;28;20033;-63
2021/04/10 06:47:30;;;;;;;4.85;1.30;;;11.80;52.40;;;;;;5042707;28;20583;-63
2021/04/10 06:49:59;;;;;;;4.88;1.38;;;11.90;52.40;;;;;;5038987;28;20498;-64
2021/04/10 06:52:30;;;;;;;4.30;1.20;;;12.00;52.10;;;;;;5039811;28;20489;-63
2021/04/10 06:55:01;;;;;;;2.65;1.35;;;12.10;52.00;;;;;;5037965;28;20505;-64
2021/04/10 06:57:34;;;;;;;2.35;1.10;;;12.20;52.10;;;;;;5037249;28;20033;-64
2021/04/10 07:00:04;;;;;;;2.42;1.00;;;12.30;51.80;;;;;;5041425;28;20048;-64
2021/04/10 07:02:32;;;;;;;4.40;1.90;;;12.30;51.80;;;;;;5040826;28;20529;-63
2021/04/10 07:05:01;;;;;;;2.60;1.00;;;12.40;51.80;;;;;;5040442;28;20896;-63
2021/04/10 07:07:30;;;;;;;2.20;1.10;;;12.50;51.80;;;;;;5040315;28;20029;-63
2021/04/10 07:10:00;;;;;;;6.38;1.63;;;12.60;51.80;;;;;;5041041;28;20041;-63
2021/04/10 07:12:25;;;;;;;3.45;0.90;;;12.70;51.50;;;;;;5035826;28;20037;-64
2021/04/10 07:14:52;;;;;;;3.20;1.42;;;12.80;51.30;;;;;;5038975;28;20039;-64
2021/04/10 07:17:17;;;;;;;6.05;1.15;;;12.80;51.20;;;;;;5044156;28;20025;-64
2021/04/10 07:19:45;;;;;;;2.78;1.20;;;13.00;51.00;;;;;;5041534;28;20033;-64
2021/04/10 07:22:13;;;;;;;2.83;1.33;;;13.00;50.80;;;;;;5040576;28;20033;-64
2021/04/10 07:24:43;;;;;;;4.00;1.20;;;13.10;50.50;;;;;;5038184;28;20434;-64
2021/04/10 07:27:14;;;;;;;4.93;1.40;;;13.20;50.30;;;;;;5040785;28;20304;-63
2021/04/10 07:29:43;;;;;;;4.97;1.42;;;13.30;50.20;;;;;;5044690;28;20057;-64
2021/04/10 07:32:34;;;;;;;6.88;1.30;;;13.40;50.00;;;;;;5044002;28;20033;-64
2021/04/10 07:35:07;;;;;;;3.55;1.50;;;13.50;49.90;;;;;;5045553;28;20033;-64
2021/04/10 07:37:43;;;;;;;3.80;1.13;;;13.60;49.70;;;;;;5041895;28;20507;-63
2021/04/10 07:40:11;;;;;;;4.18;0.95;;;13.70;49.70;;;;;;5044865;28;20036;-64
2021/04/10 07:42:46;;;;;;;1.50;1.00;;;13.70;49.00;;;;;;5043363;28;20059;-62
2021/04/10 07:45:28;;;;;;;2.83;1.20;;;13.80;48.70;;;;;;5040443;28;20040;-64
2021/04/10 07:48:14;;;;;;;3.45;1.00;;;13.90;48.40;;;;;;5038912;28;20033;-63
2021/04/10 07:50:41;;;;;;;1.95;1.10;;;13.90;48.20;;;;;;5041002;28;20041;-64
2021/04/10 07:53:26;;;;;;;3.90;1.02;;;14.00;48.20;;;;;;5038754;28;20127;-64
2021/04/10 07:55:55;;;;;;;1.88;0.85;;;14.00;48.00;;;;;;5044915;28;20055;-64
2021/04/10 07:58:25;;;;;;;1.90;0.90;;;14.10;48.20;;;;;;5044703;28;20057;-63
2021/04/10 08:00:57;;;;;;;2.20;0.98;;;14.10;48.00;;;;;;5045290;28;20041;-64
2021/04/10 08:03:34;;;;;;;1.85;0.90;;;14.20;47.90;;;;;;5039664;28;20037;-64
2021/04/10 08:06:05;;;;;;;3.10;1.10;;;14.20;47.70;;;;;;5047078;28;20045;-64
2021/04/10 08:08:45;;;;;;;1.50;0.93;;;14.20;47.60;;;;;;5039559;28;20033;-64
2021/04/10 08:11:14;;;;;;;1.38;0.80;;;14.30;47.60;;;;;;5042077;28;20033;-64
2021/04/10 08:14:01;;;;;;;3.20;1.20;;;14.30;47.40;;;;;;5043129;28;20032;-64
2021/04/10 08:16:27;;;;;;;3.33;1.40;;;14.30;47.60;;;;;;5045241;28;20064;-64
2021/04/10 08:19:00;;;;;;;3.88;1.42;;;14.40;47.80;;;;;;5040882;28;20049;-63
2021/04/10 08:21:31;;;;;;;5.90;1.52;;;14.40;47.70;;;;;;5046259;28;20417;-63
2021/04/10 08:24:01;;;;;;;3.70;1.70;;;14.50;47.60;;;;;;5044820;28;20033;-63
2021/04/10 08:26:28;;;;;;;3.10;1.48;;;14.50;47.50;;;;;;5042920;28;20029;-64
2021/04/10 08:28:56;;;;;;;2.72;1.40;;;14.50;47.40;;;;;;5041193;28;20182;-62
2021/04/10 08:31:22;;;;;;;6.30;1.55;;;14.60;47.30;;;;;;5040447;28;20029;-64
2021/04/10 08:33:48;;;;;;;2.78;1.67;;;14.60;47.30;;;;;;5044394;28;20040;-63
2021/04/10 08:36:15;;;;;;;5.63;1.45;;;14.60;47.40;;;;;;5043986;28;20064;-64
2021/04/10 08:38:43;;;;;;;2.83;1.50;;;14.60;48.10;;;;;;5041576;28;20405;-64
2021/04/10 08:41:14;;;;;;;1.92;0.90;;;14.60;47.40;;;;;;5044169;28;20559;-64
2021/04/10 08:43:50;;;;;;;2.65;1.50;;;14.60;47.20;;;;;;5039283;28;20406;-64
2021/04/10 08:46:19;;;;;;;2.90;1.20;;;14.70;47.10;;;;;;5039614;28;20116;-64
2021/04/10 08:48:51;;;;;;;4.00;1.55;;;14.70;47.10;;;;;;5041540;28;20037;-63
2021/04/10 08:51:20;;;;;;;8.80;1.80;;;14.70;47.20;;;;;;5045494;28;20025;-64
2021/04/10 08:53:47;;;;;;;4.03;1.58;;;14.70;47.30;;;;;;5042890;28;20410;-64
2021/04/10 08:56:18;;;;;;;3.75;1.50;;;14.70;47.30;;;;;;5044868;28;20040;-64
2021/04/10 08:58:48;;;;;;;2.70;1.33;;;14.70;47.40;;;;;;5041553;28;20048;-64
2021/04/10 09:01:30;;;;;;;8.52;1.30;;;14.70;47.40;;;;;;5046875;28;20029;-64
2021/04/10 09:03:55;;;;;;;2.92;1.35;;;14.80;47.40;;;;;;5040366;28;20028;-63
2021/04/10 09:06:31;;;;;;;5.93;2.70;;;14.80;47.40;;;;;;5044666;28;20090;-63
2021/04/10 09:09:12;;;;;;;4.28;1.58;;;14.90;47.70;;;;;;5041675;28;20037;-63
2021/04/10 09:11:43;;;;;;;4.78;1.40;;;14.90;47.40;;;;;;5037962;28;20037;-64
2021/04/10 09:14:09;;;;;;;3.28;1.40;;;15.00;47.40;;;;;;5038834;28;20033;-64
2021/04/10 09:16:46;;;;;;;5.65;1.50;;;15.10;47.40;;;;;;5043452;28;20123;-64
2021/04/10 09:19:19;;;;;;;1.40;1.20;;;15.10;47.50;;;;;;5042590;28;20037;-64
2021/04/10 09:21:56;;;;;;;2.83;1.30;;;15.20;47.00;;;;;;5043354;28;20041;-63
2021/04/10 09:24:42;;;;;;;3.28;1.27;;;15.30;46.80;;;;;;5041705;28;20032;-61
2021/04/10 09:27:24;;;;;;;6.05;1.50;;;15.50;47.20;;;;;;5044038;28;20421;-64
2021/04/10 09:30:01;;;;;;;4.00;1.67;;;15.50;46.80;;;;;;5042430;28;20033;-64
2021/04/10 09:32:40;;;;;;;3.75;1.80;;;15.70;46.00;;;;;;5044925;28;20033;-63
2021/04/10 09:35:31;;;;;;;3.47;1.70;;;15.80;45.70;;;;;;5043684;28;20079;-64
2021/04/10 09:37:58;;;;;;;7.32;1.67;;;15.80;45.50;;;;;;5038899;28;20124;-64
2021/04/10 09:40:43;;;;;;;3.05;2.10;;;15.90;45.60;;;;;;5044802;28;20041;-64
2021/04/10 09:43:08;;;;;;;4.15;1.52;;;16.00;45.60;;;;;;5040960;28;20025;-61
2021/04/10 09:45:37;;;;;;;5.07;1.95;;;16.10;45.40;;;;;;5040883;28;20393;-64
2021/04/10 09:48:11;;;;;;;2.05;1.17;;;16.10;45.20;;;;;;5042875;28;20117;-64
2021/04/10 09:50:42;;;;;;;2.35;1.38;;;16.20;45.20;;;;;;5042527;28;20086;-64
2021/04/10 09:53:17;;;;;;;3.30;2.20;;;16.30;45.20;;;;;;5038675;28;20056;-65
2021/04/10 09:55:43;;;;;;;9.30;1.75;;;16.40;44.40;;;;;;5041250;28;20677;-64
2021/04/10 09:58:13;;;;;;;2.10;1.45;;;16.40;44.40;;;;;;5037195;28;20037;-63
2021/04/10 10:01:02;;;;;;;1.95;1.30;;;16.50;44.10;;;;;;5042632;28;20565;-64
2021/04/10 10:03:30;;;;;;;4.68;1.50;;;16.60;42.90;;;;;;5042683;28;20033;-63
2021/04/10 10:06:01;;;;;;;6.60;1.77;;;16.60;43.70;;;;;;5046837;28;20104;-63
2021/04/10 10:08:31;;;;;;;3.45;1.70;;;16.60;43.70;;;;;;5045369;28;20044;-63
2021/04/10 10:11:06;;;;;;;2.10;1.50;;;16.70;43.80;;;;;;5040232;28;20094;-63
2021/04/10 10:13:37;;;;;;;2.53;1.65;;;16.70;43.90;;;;;;5045112;28;20408;-63
2021/04/10 10:16:06;;;;;;;1.85;1.40;;;16.70;44.00;;;;;;5045433;28;20547;-63
2021/04/10 10:18:34;;;;;;;1.20;1.10;;;16.80;43.70;;;;;;5046405;28;20497;-63
2021/04/10 10:21:15;;;;;;;3.35;1.38;;;16.90;43.50;;;;;;5045348;28;20061;-63
2021/04/10 10:23:45;;;;;;;3.90;1.25;;;16.90;42.90;;;;;;5045345;28;20029;-64
2021/04/10 10:26:17;;;;;;;1.88;1.00;;;16.90;42.80;;;;;;5046762;28;20071;-63
2021/04/10 10:28:48;;;;;;;2.60;1.33;;;16.90;42.70;;;;;;5041146;28;20032;-63
2021/04/10 10:31:20;;;;;;;3.10;1.30;;;16.90;42.70;;;;;;5044155;28;20029;-63
2021/04/10 10:33:50;;;;;;;2.38;1.08;;;16.90;42.50;;;;;;5046619;28;20100;-63
2021/04/10 10:36:19;;;;;;;3.35;1.30;;;16.90;42.50;;;;;;5045404;28;20029;-64
2021/04/10 10:38:49;;;;;;;1.55;1.17;;;16.90;42.60;;;;;;5045459;28;20029;-64
2021/04/10 10:41:20;;;;;;;2.17;1.23;;;16.90;42.80;;;;;;5046338;28;20029;-63
2021/04/10 10:43:48;;;;;;;2.20;1.25;;;17.00;42.80;;;;;;5046274;28;20104;-63
2021/04/10 10:46:19;;;;;;;1.77;1.08;;;17.00;42.50;;;;;;5046924;28;20040;-63
2021/04/10 10:48:47;;;;;;;1.98;1.10;;;17.10;42.30;;;;;;5041817;28;20068;-63
2021/04/10 10:51:19;;;;;;;2.42;1.20;;;17.20;42.20;;;;;;5044466;28;20037;-63
2021/04/10 10:53:47;;;;;;;2.22;1.25;;;17.20;42.30;;;;;;5037613;28;20033;-64
2021/04/10 10:56:24;;;;;;;2.38;1.23;;;17.30;42.20;;;;;;5046083;28;20040;-63
2021/04/10 10:58:54;;;;;;;3.78;1.00;;;17.30;42.40;;;;;;5043369;28;20041;-63
2021/04/10 11:01:32;;;;;;;1.23;1.05;;;17.40;42.60;;;;;;5045628;28;20041;-64
2021/04/10 11:04:22;;;;;;;1.95;1.08;;;17.50;42.10;;;;;;5046153;28;20033;-64
2021/04/10 11:06:49;;;;;;;2.83;1.30;;;17.60;41.90;;;;;;5036970;28;20237;-64
2021/04/10 11:09:29;;;;;;;1.92;1.30;;;17.60;41.70;;;;;;5042939;28;20080;-63
2021/04/10 11:12:00;;;;;;;2.80;1.08;;;17.70;41.50;;;;;;5039979;28;20291;-63
2021/04/10 11:14:31;;;;;;;1.85;1.15;;;17.80;41.50;;;;;;5043720;28;20037;-63
2021/04/10 11:16:59;;;;;;;2.65;1.30;;;17.80;41.30;;;;;;5042073;28;20033;-64
2021/04/10 11:19:37;;;;;;;1.38;1.27;;;17.80;41.20;;;;;;5045710;28;20048;-64
2021/04/10 11:22:07;;;;;;;1.92;1.10;;;17.90;40.80;;;;;;5043294;28;20108;-63
2021/04/10 11:24:41;;;;;;;3.28;1.02;;;17.80;41.00;;;;;;5044873;28;20033;-64
2021/04/10 11:27:23;;;;;;;2.28;1.00;;;17.80;41.00;;;;;;5044285;28;20037;-64
2021/04/10 11:29:58;;;;;;;3.13;1.10;;;17.90;40.60;;;;;;5045122;28;20033;-63
2021/04/10 11:32:43;;;;;;;2.22;0.90;;;17.90;40.50;;;;;;5043222;28;20037;-63
2021/04/10 11:35:23;;;;;;;1.35;1.15;;;17.90;39.80;;;;;;5042677;28;20040;-63
2021/04/10 11:37:58;;;;;;;1.83;0.90;;;17.90;39.30;;;;;;5043965;28;20029;-64
2021/04/10 11:40:28;;;;;;;;;;;17.80;39.60;;;;;;5046017;28;20041;-63
2021/04/10 11:42:58;;;;;;;2.13;1.13;;;17.80;40.00;;;;;;5044534;28;19928;-63
2021/04/10 11:45:29;;;;;;;3.28;1.10;;;17.80;39.50;;;;;;5039455;28;20044;-64
2021/04/10 11:48:09;;;;;;;1.45;1.10;;;17.80;39.20;;;;;;5043897;28;20404;-64
2021/04/10 11:51:03;;;;;;;3.17;1.10;;;17.70;39.00;;;;;;5044328;28;20192;-64
2021/04/10 11:53:38;;;;;;;1.70;0.90;;;17.70;38.80;;;;;;5045531;28;20272;-64
2021/04/10 11:56:22;;;;;;;;;;;17.70;38.50;;;;;;5037526;28;20048;-64
2021/04/10 11:59:00;;;;;;;2.28;1.20;;;17.70;39.00;;;;;;5044837;28;20372;-64
2021/04/10 12:01:26;;;;;;;2.38;1.02;;;17.80;39.10;;;;;;5045236;28;20325;-64
2021/04/10 12:03:54;;;;;;;1.90;1.13;;;17.80;39.30;;;;;;5044915;28;20082;-64
2021/04/10 12:06:33;;;;;;;1.75;1.08;;;17.80;39.40;;;;;;5045030;28;20029;-63
2021/04/10 12:09:07;;;;;;;2.85;1.40;;;17.80;39.40;;;;;;5049733;28;20037;-64
2021/04/10 12:11:36;;;;;;;1.30;1.17;;;17.90;39.20;;;;;;5043349;28;20120;-64
2021/04/10 12:14:03;;;;;;;3.63;1.48;;;17.90;39.20;;;;;;5049144;28;20029;-63
2021/04/10 12:16:34;;;;;;;2.78;1.23;;;17.90;38.50;;;;;;5047848;28;20493;-63
2021/04/10 12:19:02;;;;;;;2.35;1.30;;;18.00;38.80;;;;;;5040643;28;20065;-64
2021/04/10 12:21:32;;;;;;;2.83;1.38;;;18.00;39.00;;;;;;5043203;28;20041;-64
2021/04/10 12:24:00;;;;;;;2.05;1.33;;;18.00;39.20;;;;;;5044935;28;20498;-64
2021/04/10 12:26:26;;;;;;;2.08;1.40;;;18.00;39.20;;;;;;5045597;28;20036;-64
2021/04/10 12:28:55;;;;;;;4.30;1.55;;;18.00;39.20;;;;;;5043877;28;20040;-63
2021/04/10 12:31:23;;;;;;;2.85;1.42;;;18.10;39.10;;;;;;5042563;28;20040;-63
2021/04/10 12:33:49;;;;;;;2.22;1.48;;;18.20;39.10;;;;;;5047167;28;20032;-64
2021/04/10 12:36:20;;;;;;;2.70;1.63;;;18.20;39.20;;;;;;5045784;28;20037;-64
2021/04/10 12:38:48;;;;;;;3.80;1.83;;;18.30;39.20;;;;;;5046383;28;20037;-64
2021/04/10 12:41:18;;;;;;;2.17;1.50;;;18.30;38.90;;;;;;5047564;28;20456;-64
2021/04/10 12:43:44;;;;;;;2.25;1.48;;;18.30;39.00;;;;;;5045721;28;20033;-64
2021/04/10 12:46:10;;;;;;;2.55;1.45;;;18.30;39.00;;;;;;5048095;28;20068;-64
2021/04/10 12:48:38;;;;;;;2.15;1.30;;;18.30;38.90;;;;;;5046951;28;20516;-64
2021/04/10 12:51:03;;;;;;;2.97;1.38;;;18.30;39.10;;;;;;5046412;28;20502;-64
2021/04/10 12:53:31;;;;;;;2.33;1.50;;;18.30;39.10;;;;;;5047957;28;20089;-64
2021/04/10 12:56:02;;;;;;;1.90;1.40;;;18.30;38.80;;;;;;5045544;28;20033;-64
2021/04/10 12:58:27;;;;;;;2.40;1.40;;;18.40;38.50;;;;;;5046232;28;20029;-64
2021/04/10 13:00:53;;;;;;;1.88;1.33;;;18.40;38.50;;;;;;5047426;28;20063;-63
2021/04/10 13:03:24;;;;;;;1.80;1.30;;;18.40;38.40;;;;;;5048655;28;20046;-64
2021/04/10 13:05:54;;;;;;;4.72;1.23;;;18.40;38.50;;;;;;5046743;28;20037;-64